SARS/PRQ METAR and TAF weather

Enter ICAO airport designator
Station Type Date Time Source
SARS METAR 2023/09/12 17:32 UTC NOAA

SARS 121732Z 23012KT 5000 DZ OVC007 15/11 Q1013


Station Type Date Time Source
SARS Decoded METAR 2023/09/12 17:32 UTC NOAA

Presidencia Roque Saenz Pena Aerodrome, Argentina (SARS) 26-49S 060-27W 92M
Sep 12, 2023 - 01:32 PM EDT / 2023.09.12 1732 UTC
Wind: from the SW (230 degrees) at 14 MPH (12 KT):0
Visibility: 3 mile(s):0
Sky conditions: overcast
Weather: drizzle
Temperature: 59 F (15 C)
Dew Point: 51 F (11 C)
Relative Humidity: 76%
Pressure (altimeter): 29.91 in. Hg (1013 hPa)
ob: SARS 121732Z 23012KT 5000 DZ OVC007 15/11 Q1013
cycle: 17

Station Type Date Time Source
SARS TAF UTC NOAA

Error!

Example: see airport list